Aérodrome :
LOGIN :

S'inscrire | Disclaimer

   EN    FR    IT 

 










Légende :    VFR   VFR Marginal   IFR   IFR Intensif   IFR Très Intensif
Visi : 
Plafond : 
>= 8 km
>= 3000ft
5 à 8 km
1000 à 3000 ft
1500m à 5 km
500 à 1000 ft
800 à 1500m
200 à 500 ft
< 800m
< 200 ft
Symboles :   Orages  Brouillard  Fortes neiges  Fortes précipitations  Vent > 20 kt
SIGMETs :   Divers  Orages  Givrage  Turbulence  Onde Orograph.  Cendres Volcan.







- Altitude de l'aérodrome : 297 ft
- Code IATA : UIP
- Voir les cartes d'approche


LFRQ - Quimper Pluguffan

DERNIER METAR :
  • 122230Z AUTO 12010KT 090V150 4800 BR OVC004 05/05 Q1010

METARs EXPIRÉS :
  • 122200Z AUTO 12008KT 090V150 4800 BR OVC004 05/05 Q1010 TEMPO RADZ BECMG 16015G25KT
  • 122130Z AUTO 12008KT 080V160 4900 BR OVC004 06/05 Q1010 TEMPO RADZ BECMG 16015G25KT
  • 122100Z AUTO 11009KT 080V140 5000 -RA BR OVC004 06/06 Q1011 TEMPO RADZ BECMG 16015G25KT
  • 122030Z AUTO 12008KT 080V150 5000 -RA BR OVC005 06/06 Q1012 TEMPO RADZ BECMG 16015G25KT
  • 122000Z AUTO 12009KT 090V150 6000 OVC005 07/06 Q1012 TEMPO 3000 RADZ BR BECMG 16015G25KT

TAF TAF LFRQ
Valide du 12 à 18h jusqu'au 13 à 18h UTC


121700Z 1218/1318 14008KT 6000 SCT005 BKN010
TEMPO 1218/1318 3000 RADZ BR OVC003
BECMG 1220/1222 16015G25KT
BECMG 1309/1312 14010KT
Pas de NOTAMs connus pour ce terrain.



MET'MAP, la Météo Aéronautique d'un coup d'oeil ! - Copyright ORBIFLY Décembre 2007 - Disclaimer

ORBIFLY MET'MAP TEAM :

Programmation & Développement : Alexandra Zaïnal
Conception & Développement : Baudouin d'Aumeries
Co-Programmation & Développement : Marc-Olivier Méhu
Soutien technique & logistique : Manuel Goepfert

Contact : metmap@orbifly.com




SOURCES & CREDITS :

   NOAA